sensor_id;sensor_type;location;lat;lon;timestamp;temperature;humidity
13346;DHT22;6742;48.036;15.780;2023-07-29T00:01:36;19.60;99.90
13346;DHT22;6742;48.036;15.780;2023-07-29T00:04:05;19.60;99.90
13346;DHT22;6742;48.036;15.780;2023-07-29T00:06:33;19.60;99.90
13346;DHT22;6742;48.036;15.780;2023-07-29T00:09:00;19.60;99.90
13346;DHT22;6742;48.036;15.780;2023-07-29T00:11:27;19.50;99.90
13346;DHT22;6742;48.036;15.780;2023-07-29T00:13:55;19.50;99.90
13346;DHT22;6742;48.036;15.780;2023-07-29T00:16:22;19.50;99.90
13346;DHT22;6742;48.036;15.780;2023-07-29T00:18:49;19.40;99.90
13346;DHT22;6742;48.036;15.780;2023-07-29T00:21:16;19.50;99.90
13346;DHT22;6742;48.036;15.780;2023-07-29T00:23:43;19.50;99.90
13346;DHT22;6742;48.036;15.780;2023-07-29T00:26:10;19.50;99.90
13346;DHT22;6742;48.036;15.780;2023-07-29T00:28:37;19.40;99.90
13346;DHT22;6742;48.036;15.780;2023-07-29T00:31:05;19.50;99.90
13346;DHT22;6742;48.036;15.780;2023-07-29T00:33:32;19.50;99.90
13346;DHT22;6742;48.036;15.780;2023-07-29T00:35:59;19.50;99.90
13346;DHT22;6742;48.036;15.780;2023-07-29T00:38:27;19.50;99.90
13346;DHT22;6742;48.036;15.780;2023-07-29T00:40:54;19.50;99.90
13346;DHT22;6742;48.036;15.780;2023-07-29T00:43:21;19.50;99.90
13346;DHT22;6742;48.036;15.780;2023-07-29T00:45:48;19.40;99.90
13346;DHT22;6742;48.036;15.780;2023-07-29T00:48:17;19.40;99.90
13346;DHT22;6742;48.036;15.780;2023-07-29T00:50:45;19.30;99.90
13346;DHT22;6742;48.036;15.780;2023-07-29T00:53:12;19.40;99.90
13346;DHT22;6742;48.036;15.780;2023-07-29T00:55:39;19.40;99.90
13346;DHT22;6742;48.036;15.780;2023-07-29T00:58:06;19.40;99.90
13346;DHT22;6742;48.036;15.780;2023-07-29T01:00:33;19.30;99.90
13346;DHT22;6742;48.036;15.780;2023-07-29T01:03:00;19.30;99.90
13346;DHT22;6742;48.036;15.780;2023-07-29T01:05:35;19.20;99.90
13346;DHT22;6742;48.036;15.780;2023-07-29T01:08:08;19.30;99.90
13346;DHT22;6742;48.036;15.780;2023-07-29T01:10:46;19.30;99.90
13346;DHT22;6742;48.036;15.780;2023-07-29T01:13:21;19.30;99.90
13346;DHT22;6742;48.036;15.780;2023-07-29T01:15:53;19.30;99.90
13346;DHT22;6742;48.036;15.780;2023-07-29T01:18:23;19.20;99.90
13346;DHT22;6742;48.036;15.780;2023-07-29T01:20:54;19.10;99.90
13346;DHT22;6742;48.036;15.780;2023-07-29T01:23:29;19.10;99.90
13346;DHT22;6742;48.036;15.780;2023-07-29T01:25:56;19.10;99.90
13346;DHT22;6742;48.036;15.780;2023-07-29T01:28:23;19.10;99.90
13346;DHT22;6742;48.036;15.780;2023-07-29T01:30:55;19.10;99.90
13346;DHT22;6742;48.036;15.780;2023-07-29T01:33:26;19.10;99.90
13346;DHT22;6742;48.036;15.780;2023-07-29T01:35:58;19.10;99.90
13346;DHT22;6742;48.036;15.780;2023-07-29T01:38:32;19.10;99.90
13346;DHT22;6742;48.036;15.780;2023-07-29T01:41:01;19.10;99.90
13346;DHT22;6742;48.036;15.780;2023-07-29T01:43:29;19.10;99.90
13346;DHT22;6742;48.036;15.780;2023-07-29T01:45:56;19.10;99.90
13346;DHT22;6742;48.036;15.780;2023-07-29T01:48:23;19.10;99.90
13346;DHT22;6742;48.036;15.780;2023-07-29T01:50:50;19.10;99.90
13346;DHT22;6742;48.036;15.780;2023-07-29T01:53:17;19.10;99.90
13346;DHT22;6742;48.036;15.780;2023-07-29T01:55:45;19.10;99.90
13346;DHT22;6742;48.036;15.780;2023-07-29T01:58:12;19.10;99.90
13346;DHT22;6742;48.036;15.780;2023-07-29T02:00:39;19.10;99.90
13346;DHT22;6742;48.036;15.780;2023-07-29T02:03:06;19.10;99.90
13346;DHT22;6742;48.036;15.780;2023-07-29T02:05:33;19.10;99.90
13346;DHT22;6742;48.036;15.780;2023-07-29T02:08:00;19.10;99.90
13346;DHT22;6742;48.036;15.780;2023-07-29T02:10:27;19.10;99.90
13346;DHT22;6742;48.036;15.780;2023-07-29T02:12:56;19.10;99.90
13346;DHT22;6742;48.036;15.780;2023-07-29T02:15:23;19.10;99.90
13346;DHT22;6742;48.036;15.780;2023-07-29T02:17:50;19.10;99.90
13346;DHT22;6742;48.036;15.780;2023-07-29T02:20:17;19.10;99.90
13346;DHT22;6742;48.036;15.780;2023-07-29T02:22:44;19.10;99.90
13346;DHT22;6742;48.036;15.780;2023-07-29T02:25:11;19.10;99.90
13346;DHT22;6742;48.036;15.780;2023-07-29T02:27:38;19.00;99.90
13346;DHT22;6742;48.036;15.780;2023-07-29T02:30:07;19.00;99.90
13346;DHT22;6742;48.036;15.780;2023-07-29T02:32:35;19.00;99.90
13346;DHT22;6742;48.036;15.780;2023-07-29T02:35:02;19.00;99.90
13346;DHT22;6742;48.036;15.780;2023-07-29T02:37:29;19.00;99.90
13346;DHT22;6742;48.036;15.780;2023-07-29T02:39:56;19.00;99.90
13346;DHT22;6742;48.036;15.780;2023-07-29T02:42:23;19.00;99.90
13346;DHT22;6742;48.036;15.780;2023-07-29T02:44:50;19.00;99.90
13346;DHT22;6742;48.036;15.780;2023-07-29T02:47:18;19.00;99.90
13346;DHT22;6742;48.036;15.780;2023-07-29T02:49:45;19.00;99.90
13346;DHT22;6742;48.036;15.780;2023-07-29T02:52:12;18.90;99.90
13346;DHT22;6742;48.036;15.780;2023-07-29T02:54:39;18.90;99.90
13346;DHT22;6742;48.036;15.780;2023-07-29T02:57:06;19.00;99.90
13346;DHT22;6742;48.036;15.780;2023-07-29T02:59:33;19.00;99.90
13346;DHT22;6742;48.036;15.780;2023-07-29T03:02:00;18.90;99.90
13346;DHT22;6742;48.036;15.780;2023-07-29T03:04:29;18.90;99.90
13346;DHT22;6742;48.036;15.780;2023-07-29T03:06:56;18.90;99.90
13346;DHT22;6742;48.036;15.780;2023-07-29T03:09:23;18.90;99.90
13346;DHT22;6742;48.036;15.780;2023-07-29T03:11:50;18.80;99.90
13346;DHT22;6742;48.036;15.780;2023-07-29T03:14:18;18.80;99.90
13346;DHT22;6742;48.036;15.780;2023-07-29T03:16:45;18.80;99.90
13346;DHT22;6742;48.036;15.780;2023-07-29T03:19:12;18.80;99.90
13346;DHT22;6742;48.036;15.780;2023-07-29T03:21:40;18.70;99.90
13346;DHT22;6742;48.036;15.780;2023-07-29T03:24:07;18.70;99.90
13346;DHT22;6742;48.036;15.780;2023-07-29T03:26:34;18.80;99.90
13346;DHT22;6742;48.036;15.780;2023-07-29T03:29:01;18.80;99.90
13346;DHT22;6742;48.036;15.780;2023-07-29T03:31:28;18.80;99.90
13346;DHT22;6742;48.036;15.780;2023-07-29T03:33:55;18.80;99.90
13346;DHT22;6742;48.036;15.780;2023-07-29T03:36:22;18.80;99.90
13346;DHT22;6742;48.036;15.780;2023-07-29T03:38:52;18.80;99.90
13346;DHT22;6742;48.036;15.780;2023-07-29T03:41:19;18.80;99.90
13346;DHT22;6742;48.036;15.780;2023-07-29T03:43:46;18.80;99.90
13346;DHT22;6742;48.036;15.780;2023-07-29T03:46:13;18.80;99.90
13346;DHT22;6742;48.036;15.780;2023-07-29T03:48:43;18.80;99.90
13346;DHT22;6742;48.036;15.780;2023-07-29T03:51:10;18.80;99.90
13346;DHT22;6742;48.036;15.780;2023-07-29T03:53:37;18.80;99.90
13346;DHT22;6742;48.036;15.780;2023-07-29T03:56:05;18.80;99.90
13346;DHT22;6742;48.036;15.780;2023-07-29T03:58:32;18.80;99.90
13346;DHT22;6742;48.036;15.780;2023-07-29T04:00:59;18.70;99.90
13346;DHT22;6742;48.036;15.780;2023-07-29T04:03:26;18.70;99.90
13346;DHT22;6742;48.036;15.780;2023-07-29T04:05:53;18.70;99.90
13346;DHT22;6742;48.036;15.780;2023-07-29T04:08:21;18.70;99.90
13346;DHT22;6742;48.036;15.780;2023-07-29T04:10:48;18.70;99.90
13346;DHT22;6742;48.036;15.780;2023-07-29T04:13:16;18.70;99.90
13346;DHT22;6742;48.036;15.780;2023-07-29T04:15:44;18.60;99.90
13346;DHT22;6742;48.036;15.780;2023-07-29T04:18:11;18.60;99.90
13346;DHT22;6742;48.036;15.780;2023-07-29T04:20:38;18.60;99.90
13346;DHT22;6742;48.036;15.780;2023-07-29T04:23:05;18.70;99.90
13346;DHT22;6742;48.036;15.780;2023-07-29T04:25:32;18.70;99.90
13346;DHT22;6742;48.036;15.780;2023-07-29T04:27:59;18.70;99.90
13346;DHT22;6742;48.036;15.780;2023-07-29T04:30:27;18.70;99.90
13346;DHT22;6742;48.036;15.780;2023-07-29T04:32:54;18.70;99.90
13346;DHT22;6742;48.036;15.780;2023-07-29T04:35:21;18.80;99.90
13346;DHT22;6742;48.036;15.780;2023-07-29T04:37:48;18.80;99.90
13346;DHT22;6742;48.036;15.780;2023-07-29T04:40:16;18.80;99.90
13346;DHT22;6742;48.036;15.780;2023-07-29T04:42:42;18.80;99.90
13346;DHT22;6742;48.036;15.780;2023-07-29T04:45:10;18.80;99.90
13346;DHT22;6742;48.036;15.780;2023-07-29T04:47:38;19.80;99.90
13346;DHT22;6742;48.036;15.780;2023-07-29T04:50:06;19.90;99.90
13346;DHT22;6742;48.036;15.780;2023-07-29T04:52:34;19.80;99.90
13346;DHT22;6742;48.036;15.780;2023-07-29T04:55:01;20.10;99.90
13346;DHT22;6742;48.036;15.780;2023-07-29T04:57:28;20.10;99.90
13346;DHT22;6742;48.036;15.780;2023-07-29T04:59:55;19.90;99.90
13346;DHT22;6742;48.036;15.780;2023-07-29T05:02:22;19.90;99.90
13346;DHT22;6742;48.036;15.780;2023-07-29T05:04:50;19.70;99.90
13346;DHT22;6742;48.036;15.780;2023-07-29T05:07:17;19.60;99.90
13346;DHT22;6742;48.036;15.780;2023-07-29T05:09:44;19.50;99.90
13346;DHT22;6742;48.036;15.780;2023-07-29T05:12:11;19.40;99.90
13346;DHT22;6742;48.036;15.780;2023-07-29T05:14:37;19.40;99.90
13346;DHT22;6742;48.036;15.780;2023-07-29T05:17:05;19.30;99.90
13346;DHT22;6742;48.036;15.780;2023-07-29T05:19:32;19.30;99.90
13346;DHT22;6742;48.036;15.780;2023-07-29T05:22:00;19.40;99.90
13346;DHT22;6742;48.036;15.780;2023-07-29T05:24:27;19.40;99.90
13346;DHT22;6742;48.036;15.780;2023-07-29T05:26:54;19.40;99.90
13346;DHT22;6742;48.036;15.780;2023-07-29T05:29:21;19.40;99.90
13346;DHT22;6742;48.036;15.780;2023-07-29T05:31:48;19.80;99.90
13346;DHT22;6742;48.036;15.780;2023-07-29T05:34:15;20.10;99.90
13346;DHT22;6742;48.036;15.780;2023-07-29T05:36:41;20.80;99.90
13346;DHT22;6742;48.036;15.780;2023-07-29T05:39:10;22.80;99.90
13346;DHT22;6742;48.036;15.780;2023-07-29T05:41:37;23.50;99.90
13346;DHT22;6742;48.036;15.780;2023-07-29T05:44:04;24.60;99.90
13346;DHT22;6742;48.036;15.780;2023-07-29T05:46:31;25.40;99.90
13346;DHT22;6742;48.036;15.780;2023-07-29T05:48:58;26.10;99.90
13346;DHT22;6742;48.036;15.780;2023-07-29T05:51:25;26.50;99.30
13346;DHT22;6742;48.036;15.780;2023-07-29T05:53:52;26.10;99.40
13346;DHT22;6742;48.036;15.780;2023-07-29T05:56:20;26.10;99.00
13346;DHT22;6742;48.036;15.780;2023-07-29T05:58:47;25.60;99.40
13346;DHT22;6742;48.036;15.780;2023-07-29T06:01:15;24.80;99.90
13346;DHT22;6742;48.036;15.780;2023-07-29T06:03:42;24.10;99.90
13346;DHT22;6742;48.036;15.780;2023-07-29T06:06:09;24.10;99.90
13346;DHT22;6742;48.036;15.780;2023-07-29T06:08:35;24.70;99.90
13346;DHT22;6742;48.036;15.780;2023-07-29T06:11:02;25.00;99.90
13346;DHT22;6742;48.036;15.780;2023-07-29T06:13:33;24.80;99.90
13346;DHT22;6742;48.036;15.780;2023-07-29T06:16:00;24.40;99.90
13346;DHT22;6742;48.036;15.780;2023-07-29T06:18:27;23.70;99.90
13346;DHT22;6742;48.036;15.780;2023-07-29T06:20:54;23.50;99.90
13346;DHT22;6742;48.036;15.780;2023-07-29T06:23:20;23.30;99.90
13346;DHT22;6742;48.036;15.780;2023-07-29T06:25:47;23.30;99.90
13346;DHT22;6742;48.036;15.780;2023-07-29T06:28:14;23.20;99.90
13346;DHT22;6742;48.036;15.780;2023-07-29T06:30:42;23.40;99.90
13346;DHT22;6742;48.036;15.780;2023-07-29T06:33:10;23.70;99.90
13346;DHT22;6742;48.036;15.780;2023-07-29T06:35:37;24.10;99.90
13346;DHT22;6742;48.036;15.780;2023-07-29T06:38:04;24.30;99.90
13346;DHT22;6742;48.036;15.780;2023-07-29T06:40:31;24.30;99.90
13346;DHT22;6742;48.036;15.780;2023-07-29T06:42:58;24.30;99.90
13346;DHT22;6742;48.036;15.780;2023-07-29T06:45:24;24.40;99.90
13346;DHT22;6742;48.036;15.780;2023-07-29T06:47:53;24.30;99.90
13346;DHT22;6742;48.036;15.780;2023-07-29T06:50:20;24.40;99.90
13346;DHT22;6742;48.036;15.780;2023-07-29T06:52:47;24.80;99.90
13346;DHT22;6742;48.036;15.780;2023-07-29T06:55:14;25.30;99.50
13346;DHT22;6742;48.036;15.780;2023-07-29T06:57:41;25.80;98.70
13346;DHT22;6742;48.036;15.780;2023-07-29T07:00:08;26.20;98.00
13346;DHT22;6742;48.036;15.780;2023-07-29T07:02:35;26.80;97.20
13346;DHT22;6742;48.036;15.780;2023-07-29T07:05:04;27.40;96.10
13346;DHT22;6742;48.036;15.780;2023-07-29T07:07:31;27.80;94.80
13346;DHT22;6742;48.036;15.780;2023-07-29T07:09:58;27.60;93.90
13346;DHT22;6742;48.036;15.780;2023-07-29T07:12:25;27.40;94.50
13346;DHT22;6742;48.036;15.780;2023-07-29T07:14:52;27.50;94.50
13346;DHT22;6742;48.036;15.780;2023-07-29T07:17:19;27.90;94.40
13346;DHT22;6742;48.036;15.780;2023-07-29T07:19:46;28.20;94.20
13346;DHT22;6742;48.036;15.780;2023-07-29T07:22:14;28.60;93.90
13346;DHT22;6742;48.036;15.780;2023-07-29T07:24:41;28.80;93.30
13346;DHT22;6742;48.036;15.780;2023-07-29T07:27:08;29.00;92.80
13346;DHT22;6742;48.036;15.780;2023-07-29T07:29:35;29.20;92.50
13346;DHT22;6742;48.036;15.780;2023-07-29T07:32:03;29.40;91.60
13346;DHT22;6742;48.036;15.780;2023-07-29T07:34:30;29.70;91.50
13346;DHT22;6742;48.036;15.780;2023-07-29T07:36:58;30.00;90.90
13346;DHT22;6742;48.036;15.780;2023-07-29T07:39:27;30.00;89.80
13346;DHT22;6742;48.036;15.780;2023-07-29T07:41:54;30.20;90.60
13346;DHT22;6742;48.036;15.780;2023-07-29T07:44:21;30.20;90.60
13346;DHT22;6742;48.036;15.780;2023-07-29T07:46:48;30.40;90.20
13346;DHT22;6742;48.036;15.780;2023-07-29T07:49:15;30.50;89.10
13346;DHT22;6742;48.036;15.780;2023-07-29T07:51:43;30.70;88.50
13346;DHT22;6742;48.036;15.780;2023-07-29T07:54:10;30.80;86.70
13346;DHT22;6742;48.036;15.780;2023-07-29T07:56:39;30.60;86.30
13346;DHT22;6742;48.036;15.780;2023-07-29T07:59:06;30.80;86.90
13346;DHT22;6742;48.036;15.780;2023-07-29T08:01:34;31.00;85.50
13346;DHT22;6742;48.036;15.780;2023-07-29T08:04:01;31.20;85.30
13346;DHT22;6742;48.036;15.780;2023-07-29T08:06:28;31.40;84.30
13346;DHT22;6742;48.036;15.780;2023-07-29T08:08:55;31.60;84.00
13346;DHT22;6742;48.036;15.780;2023-07-29T08:11:22;31.70;83.00
13346;DHT22;6742;48.036;15.780;2023-07-29T08:13:51;31.60;82.80
13346;DHT22;6742;48.036;15.780;2023-07-29T08:16:18;31.60;81.50
13346;DHT22;6742;48.036;15.780;2023-07-29T08:18:45;31.70;83.00
13346;DHT22;6742;48.036;15.780;2023-07-29T08:21:12;32.00;82.60
13346;DHT22;6742;48.036;15.780;2023-07-29T08:23:39;32.20;81.40
13346;DHT22;6742;48.036;15.780;2023-07-29T08:26:06;32.20;82.50
13346;DHT22;6742;48.036;15.780;2023-07-29T08:28:34;32.30;81.40
13346;DHT22;6742;48.036;15.780;2023-07-29T08:31:03;32.40;81.50
13346;DHT22;6742;48.036;15.780;2023-07-29T08:33:31;32.40;81.00
13346;DHT22;6742;48.036;15.780;2023-07-29T08:35:59;32.60;79.60
13346;DHT22;6742;48.036;15.780;2023-07-29T08:38:26;32.10;79.80
13346;DHT22;6742;48.036;15.780;2023-07-29T08:40:57;32.40;79.90
13346;DHT22;6742;48.036;15.780;2023-07-29T08:43:29;32.50;78.60
13346;DHT22;6742;48.036;15.780;2023-07-29T08:45:57;32.70;79.30
13346;DHT22;6742;48.036;15.780;2023-07-29T08:48:32;32.80;78.60
13346;DHT22;6742;48.036;15.780;2023-07-29T08:51:01;33.10;79.80
13346;DHT22;6742;48.036;15.780;2023-07-29T08:53:31;33.30;77.30
13346;DHT22;6742;48.036;15.780;2023-07-29T08:55:59;33.40;77.00
13346;DHT22;6742;48.036;15.780;2023-07-29T08:58:26;33.10;75.10
13346;DHT22;6742;48.036;15.780;2023-07-29T09:00:54;32.80;76.80
13346;DHT22;6742;48.036;15.780;2023-07-29T09:03:21;33.10;77.80
13346;DHT22;6742;48.036;15.780;2023-07-29T09:05:50;33.40;75.90
13346;DHT22;6742;48.036;15.780;2023-07-29T09:08:18;33.10;74.20
13346;DHT22;6742;48.036;15.780;2023-07-29T09:10:46;33.00;76.60
13346;DHT22;6742;48.036;15.780;2023-07-29T09:13:13;32.80;77.70
13346;DHT22;6742;48.036;15.780;2023-07-29T09:15:40;32.70;78.50
13346;DHT22;6742;48.036;15.780;2023-07-29T09:18:11;32.30;76.90
13346;DHT22;6742;48.036;15.780;2023-07-29T09:20:39;32.30;79.00
13346;DHT22;6742;48.036;15.780;2023-07-29T09:23:09;32.50;78.80
13346;DHT22;6742;48.036;15.780;2023-07-29T09:25:37;32.90;78.70
13346;DHT22;6742;48.036;15.780;2023-07-29T09:28:09;32.90;78.30
13346;DHT22;6742;48.036;15.780;2023-07-29T09:30:36;33.30;79.30
13346;DHT22;6742;48.036;15.780;2023-07-29T09:33:03;33.60;75.60
13346;DHT22;6742;48.036;15.780;2023-07-29T09:35:32;33.80;76.20
13346;DHT22;6742;48.036;15.780;2023-07-29T09:38:00;34.10;75.80
13346;DHT22;6742;48.036;15.780;2023-07-29T09:40:34;33.90;75.00
13346;DHT22;6742;48.036;15.780;2023-07-29T09:43:01;33.80;74.40
13346;DHT22;6742;48.036;15.780;2023-07-29T09:45:29;33.90;74.40
13346;DHT22;6742;48.036;15.780;2023-07-29T09:47:57;33.60;74.70
13346;DHT22;6742;48.036;15.780;2023-07-29T09:50:24;32.80;73.70
13346;DHT22;6742;48.036;15.780;2023-07-29T09:52:52;32.80;75.80
13346;DHT22;6742;48.036;15.780;2023-07-29T09:55:21;33.30;76.30
13346;DHT22;6742;48.036;15.780;2023-07-29T09:57:53;33.60;75.20
13346;DHT22;6742;48.036;15.780;2023-07-29T10:00:20;33.90;74.40
13346;DHT22;6742;48.036;15.780;2023-07-29T10:02:48;33.90;73.80
13346;DHT22;6742;48.036;15.780;2023-07-29T10:05:15;34.10;74.00
13346;DHT22;6742;48.036;15.780;2023-07-29T10:07:42;34.10;73.40
13346;DHT22;6742;48.036;15.780;2023-07-29T10:10:09;34.00;73.30
13346;DHT22;6742;48.036;15.780;2023-07-29T10:12:39;34.10;73.40
13346;DHT22;6742;48.036;15.780;2023-07-29T10:15:10;34.40;72.90
13346;DHT22;6742;48.036;15.780;2023-07-29T10:17:38;34.10;73.00
13346;DHT22;6742;48.036;15.780;2023-07-29T10:20:07;33.80;74.70
13346;DHT22;6742;48.036;15.780;2023-07-29T10:22:37;33.60;73.50
13346;DHT22;6742;48.036;15.780;2023-07-29T10:25:06;33.10;73.00
13346;DHT22;6742;48.036;15.780;2023-07-29T10:27:42;32.70;73.30
13346;DHT22;6742;48.036;15.780;2023-07-29T10:30:11;32.30;73.30
13346;DHT22;6742;48.036;15.780;2023-07-29T10:32:42;32.40;75.90
13346;DHT22;6742;48.036;15.780;2023-07-29T10:35:10;32.30;74.80
13346;DHT22;6742;48.036;15.780;2023-07-29T10:37:38;31.90;74.70
13346;DHT22;6742;48.036;15.780;2023-07-29T10:40:08;31.50;76.90
13346;DHT22;6742;48.036;15.780;2023-07-29T10:42:35;31.40;78.50
13346;DHT22;6742;48.036;15.780;2023-07-29T10:45:21;31.00;80.10
13346;DHT22;6742;48.036;15.780;2023-07-29T10:47:48;30.80;78.80
13346;DHT22;6742;48.036;15.780;2023-07-29T10:50:18;30.60;80.20
13346;DHT22;6742;48.036;15.780;2023-07-29T10:52:49;30.50;79.20
13346;DHT22;6742;48.036;15.780;2023-07-29T10:55:26;30.30;79.60
13346;DHT22;6742;48.036;15.780;2023-07-29T10:58:04;30.20;79.80
13346;DHT22;6742;48.036;15.780;2023-07-29T11:00:33;29.90;80.90
13346;DHT22;6742;48.036;15.780;2023-07-29T11:03:02;30.00;81.30
13346;DHT22;6742;48.036;15.780;2023-07-29T11:05:43;30.10;81.90
13346;DHT22;6742;48.036;15.780;2023-07-29T11:08:26;30.30;82.00
13346;DHT22;6742;48.036;15.780;2023-07-29T11:11:04;30.70;80.80
13346;DHT22;6742;48.036;15.780;2023-07-29T11:13:33;31.00;79.20
13346;DHT22;6742;48.036;15.780;2023-07-29T11:16:03;31.30;79.60
13346;DHT22;6742;48.036;15.780;2023-07-29T11:18:32;31.70;77.50
13346;DHT22;6742;48.036;15.780;2023-07-29T11:20:59;31.80;79.00
13346;DHT22;6742;48.036;15.780;2023-07-29T11:23:31;31.80;78.20
13346;DHT22;6742;48.036;15.780;2023-07-29T11:25:58;31.90;78.00
13346;DHT22;6742;48.036;15.780;2023-07-29T11:28:26;31.80;77.30
13346;DHT22;6742;48.036;15.780;2023-07-29T11:30:54;31.80;78.30
13346;DHT22;6742;48.036;15.780;2023-07-29T11:33:24;31.80;77.40
13346;DHT22;6742;48.036;15.780;2023-07-29T11:35:51;31.60;76.10
13346;DHT22;6742;48.036;15.780;2023-07-29T11:38:19;30.90;76.80
13346;DHT22;6742;48.036;15.780;2023-07-29T11:41:00;30.80;78.50
13346;DHT22;6742;48.036;15.780;2023-07-29T11:43:28;31.00;81.60
13346;DHT22;6742;48.036;15.780;2023-07-29T11:45:55;30.80;79.80
13346;DHT22;6742;48.036;15.780;2023-07-29T11:48:32;30.30;76.60
13346;DHT22;6742;48.036;15.780;2023-07-29T11:50:59;30.00;77.60
13346;DHT22;6742;48.036;15.780;2023-07-29T11:53:28;29.70;79.30
13346;DHT22;6742;48.036;15.780;2023-07-29T11:55:55;29.80;81.10
13346;DHT22;6742;48.036;15.780;2023-07-29T11:58:23;30.00;80.60
13346;DHT22;6742;48.036;15.780;2023-07-29T12:00:51;30.20;81.90
13346;DHT22;6742;48.036;15.780;2023-07-29T12:03:18;30.10;81.90
13346;DHT22;6742;48.036;15.780;2023-07-29T12:05:47;29.80;82.90
13346;DHT22;6742;48.036;15.780;2023-07-29T12:08:14;29.80;83.10
13346;DHT22;6742;48.036;15.780;2023-07-29T12:10:42;29.80;84.10
13346;DHT22;6742;48.036;15.780;2023-07-29T12:13:09;29.60;82.30
13346;DHT22;6742;48.036;15.780;2023-07-29T12:15:38;29.60;81.70
13346;DHT22;6742;48.036;15.780;2023-07-29T12:18:06;29.40;81.60
13346;DHT22;6742;48.036;15.780;2023-07-29T12:20:33;29.10;83.20
13346;DHT22;6742;48.036;15.780;2023-07-29T12:23:02;29.00;84.40
13346;DHT22;6742;48.036;15.780;2023-07-29T12:25:31;28.90;84.40
13346;DHT22;6742;48.036;15.780;2023-07-29T12:28:02;28.80;86.00
13346;DHT22;6742;48.036;15.780;2023-07-29T12:30:30;28.50;85.00
13346;DHT22;6742;48.036;15.780;2023-07-29T12:32:57;28.10;85.90
13346;DHT22;6742;48.036;15.780;2023-07-29T12:35:24;28.00;87.40
13346;DHT22;6742;48.036;15.780;2023-07-29T12:38:01;27.90;86.40
13346;DHT22;6742;48.036;15.780;2023-07-29T12:40:29;28.00;87.70
13346;DHT22;6742;48.036;15.780;2023-07-29T12:42:56;28.10;87.50
13346;DHT22;6742;48.036;15.780;2023-07-29T12:45:23;28.10;88.80
13346;DHT22;6742;48.036;15.780;2023-07-29T12:47:52;28.20;88.60
13346;DHT22;6742;48.036;15.780;2023-07-29T12:50:19;28.20;90.10
13346;DHT22;6742;48.036;15.780;2023-07-29T12:52:46;28.10;88.10
13346;DHT22;6742;48.036;15.780;2023-07-29T12:55:15;27.90;87.20
13346;DHT22;6742;48.036;15.780;2023-07-29T12:57:42;28.00;88.00
13346;DHT22;6742;48.036;15.780;2023-07-29T13:00:10;28.30;86.90
13346;DHT22;6742;48.036;15.780;2023-07-29T13:02:37;28.40;86.80
13346;DHT22;6742;48.036;15.780;2023-07-29T13:05:06;28.50;86.50
13346;DHT22;6742;48.036;15.780;2023-07-29T13:07:33;28.50;85.80
13346;DHT22;6742;48.036;15.780;2023-07-29T13:10:00;28.70;85.50
13346;DHT22;6742;48.036;15.780;2023-07-29T13:12:28;28.90;84.80
13346;DHT22;6742;48.036;15.780;2023-07-29T13:14:55;29.00;85.80
13346;DHT22;6742;48.036;15.780;2023-07-29T13:17:22;29.10;83.10
13346;DHT22;6742;48.036;15.780;2023-07-29T13:19:49;29.30;83.50
13346;DHT22;6742;48.036;15.780;2023-07-29T13:22:16;29.40;84.00
13346;DHT22;6742;48.036;15.780;2023-07-29T13:24:43;29.50;83.60
13346;DHT22;6742;48.036;15.780;2023-07-29T13:27:10;29.40;84.40
13346;DHT22;6742;48.036;15.780;2023-07-29T13:29:39;29.30;85.00
13346;DHT22;6742;48.036;15.780;2023-07-29T13:32:07;29.00;84.20
13346;DHT22;6742;48.036;15.780;2023-07-29T13:34:34;28.70;86.10
13346;DHT22;6742;48.036;15.780;2023-07-29T13:37:01;28.70;85.80
13346;DHT22;6742;48.036;15.780;2023-07-29T13:39:28;28.70;86.40
13346;DHT22;6742;48.036;15.780;2023-07-29T13:41:55;28.90;87.70
13346;DHT22;6742;48.036;15.780;2023-07-29T13:44:22;29.00;87.80
13346;DHT22;6742;48.036;15.780;2023-07-29T13:46:51;29.10;86.50
13346;DHT22;6742;48.036;15.780;2023-07-29T13:49:18;29.00;87.80
13346;DHT22;6742;48.036;15.780;2023-07-29T13:51:44;29.00;85.50
13346;DHT22;6742;48.036;15.780;2023-07-29T13:54:11;29.00;85.50
13346;DHT22;6742;48.036;15.780;2023-07-29T13:56:38;28.90;85.70
13346;DHT22;6742;48.036;15.780;2023-07-29T13:59:05;29.00;86.60
13346;DHT22;6742;48.036;15.780;2023-07-29T14:01:32;29.00;86.40
13346;DHT22;6742;48.036;15.780;2023-07-29T14:04:00;29.00;85.40
13346;DHT22;6742;48.036;15.780;2023-07-29T14:06:27;29.10;87.00
13346;DHT22;6742;48.036;15.780;2023-07-29T14:08:56;29.10;87.60
13346;DHT22;6742;48.036;15.780;2023-07-29T14:11:22;29.10;86.70
13346;DHT22;6742;48.036;15.780;2023-07-29T14:13:49;29.00;84.70
13346;DHT22;6742;48.036;15.780;2023-07-29T14:16:16;28.90;83.20
13346;DHT22;6742;48.036;15.780;2023-07-29T14:18:43;28.60;82.70
13346;DHT22;6742;48.036;15.780;2023-07-29T14:21:11;28.60;84.00
13346;DHT22;6742;48.036;15.780;2023-07-29T14:23:38;28.40;84.50
13346;DHT22;6742;48.036;15.780;2023-07-29T14:26:05;28.20;85.10
13346;DHT22;6742;48.036;15.780;2023-07-29T14:28:35;28.10;86.90
13346;DHT22;6742;48.036;15.780;2023-07-29T14:31:02;28.10;87.70
13346;DHT22;6742;48.036;15.780;2023-07-29T14:33:29;28.10;88.20
13346;DHT22;6742;48.036;15.780;2023-07-29T14:35:56;28.10;87.50
13346;DHT22;6742;48.036;15.780;2023-07-29T14:38:24;28.10;88.00
13346;DHT22;6742;48.036;15.780;2023-07-29T14:40:51;28.00;87.70
13346;DHT22;6742;48.036;15.780;2023-07-29T14:43:20;27.90;88.00
13346;DHT22;6742;48.036;15.780;2023-07-29T14:45:47;27.80;88.90
13346;DHT22;6742;48.036;15.780;2023-07-29T14:48:14;27.80;89.10
13346;DHT22;6742;48.036;15.780;2023-07-29T14:50:41;27.60;89.50
13346;DHT22;6742;48.036;15.780;2023-07-29T14:53:09;27.50;89.80
13346;DHT22;6742;48.036;15.780;2023-07-29T14:55:38;27.40;89.80
13346;DHT22;6742;48.036;15.780;2023-07-29T14:58:05;27.40;89.90
13346;DHT22;6742;48.036;15.780;2023-07-29T15:00:32;27.40;89.60
13346;DHT22;6742;48.036;15.780;2023-07-29T15:02:59;27.20;89.30
13346;DHT22;6742;48.036;15.780;2023-07-29T15:05:25;27.10;89.90
13346;DHT22;6742;48.036;15.780;2023-07-29T15:07:52;26.90;90.30
13346;DHT22;6742;48.036;15.780;2023-07-29T15:10:19;26.80;90.40
13346;DHT22;6742;48.036;15.780;2023-07-29T15:12:48;26.80;90.60
13346;DHT22;6742;48.036;15.780;2023-07-29T15:15:15;26.70;90.50
13346;DHT22;6742;48.036;15.780;2023-07-29T15:17:42;26.80;90.80
13346;DHT22;6742;48.036;15.780;2023-07-29T15:20:10;26.70;90.70
13346;DHT22;6742;48.036;15.780;2023-07-29T15:22:37;26.70;90.50
13346;DHT22;6742;48.036;15.780;2023-07-29T15:25:05;26.70;90.60
13346;DHT22;6742;48.036;15.780;2023-07-29T15:27:32;26.80;90.70
13346;DHT22;6742;48.036;15.780;2023-07-29T15:30:00;26.70;90.50
13346;DHT22;6742;48.036;15.780;2023-07-29T15:32:28;26.70;90.80
13346;DHT22;6742;48.036;15.780;2023-07-29T15:34:55;26.60;90.90